createdAt,value
2018-07-20T00:01:34.642Z,5.80
2018-07-20T00:04:01.995Z,6.50
2018-07-20T00:06:29.411Z,6.27
2018-07-20T00:08:56.707Z,6.20
2018-07-20T00:11:25.283Z,6.60
2018-07-20T00:13:52.581Z,6.60
2018-07-20T00:16:19.890Z,6.87
2018-07-20T00:18:47.211Z,6.03
2018-07-20T00:21:14.458Z,7.43
2018-07-20T00:23:41.807Z,6.97
2018-07-20T00:26:09.070Z,7.83
2018-07-20T00:28:36.674Z,6.97
2018-07-20T00:31:03.958Z,6.63
2018-07-20T00:33:31.330Z,6.70
2018-07-20T00:35:58.698Z,7.10
2018-07-20T00:38:26.291Z,7.40
2018-07-20T00:40:53.615Z,6.40
2018-07-20T00:43:20.874Z,7.13
2018-07-20T00:45:48.146Z,6.80
2018-07-20T00:48:15.419Z,8.20
2018-07-20T00:50:42.666Z,7.97
2018-07-20T00:53:09.952Z,7.53
2018-07-20T00:55:37.370Z,8.00
2018-07-20T00:58:04.685Z,7.50
2018-07-20T01:00:32.055Z,7.40
2018-07-20T01:02:59.335Z,7.70
2018-07-20T01:05:26.718Z,7.50
2018-07-20T01:07:54.111Z,7.50
2018-07-20T01:10:21.398Z,8.07
2018-07-20T01:12:48.707Z,8.30
2018-07-20T01:15:16.045Z,7.83
2018-07-20T01:17:43.349Z,7.17
2018-07-20T01:20:10.727Z,8.00
2018-07-20T01:22:38.026Z,8.10
2018-07-20T01:25:05.390Z,8.53
2018-07-20T01:27:32.667Z,8.40
2018-07-20T01:29:59.998Z,7.83
2018-07-20T01:32:27.406Z,7.90
2018-07-20T01:34:54.687Z,8.03
2018-07-20T01:37:21.923Z,8.07
2018-07-20T01:39:49.301Z,8.60
2018-07-20T01:42:16.586Z,8.40
2018-07-20T01:44:43.874Z,8.57
2018-07-20T01:47:11.203Z,9.00
2018-07-20T01:49:38.454Z,7.80
2018-07-20T01:53:37.494Z,7.90
2018-07-20T01:56:04.769Z,8.70
2018-07-20T01:58:32.044Z,8.27
2018-07-20T02:00:59.278Z,8.57
2018-07-20T02:03:26.658Z,8.50
2018-07-20T02:05:53.940Z,8.40
2018-07-20T02:08:21.414Z,9.13
2018-07-20T02:10:53.511Z,10.17
2018-07-20T02:13:20.918Z,9.30
2018-07-20T02:15:48.213Z,10.10
2018-07-20T02:18:15.517Z,9.23
2018-07-20T02:20:42.865Z,8.90
2018-07-20T02:23:10.207Z,9.10
2018-07-20T02:25:37.483Z,9.07
2018-07-20T02:28:05.862Z,8.70
2018-07-20T02:30:33.186Z,9.67
2018-07-20T02:33:00.492Z,9.30
2018-07-20T02:35:27.776Z,8.20
2018-07-20T02:37:55.015Z,8.90
2018-07-20T02:40:22.291Z,8.70
2018-07-20T02:42:49.546Z,8.20
2018-07-20T02:45:16.830Z,8.80
2018-07-20T02:47:44.099Z,10.00
2018-07-20T02:50:11.379Z,9.30
2018-07-20T02:52:38.723Z,8.50
2018-07-20T02:55:05.991Z,8.63
2018-07-20T02:57:33.291Z,8.93
2018-07-20T03:00:00.628Z,8.50
2018-07-20T03:02:27.974Z,8.70
2018-07-20T03:04:55.328Z,8.93
2018-07-20T03:07:22.762Z,8.40
2018-07-20T03:09:50.202Z,9.10
2018-07-20T03:12:17.634Z,10.00
2018-07-20T03:14:44.944Z,9.47
2018-07-20T03:17:12.330Z,9.90
2018-07-20T03:19:39.736Z,9.10
2018-07-20T03:22:08.055Z,9.63
2018-07-20T03:24:35.391Z,9.80
2018-07-20T03:27:02.719Z,9.40
2018-07-20T03:29:30.039Z,9.53
2018-07-20T03:31:57.383Z,10.23
2018-07-20T03:34:24.671Z,9.20
2018-07-20T03:36:51.946Z,9.40
2018-07-20T03:39:19.211Z,9.60
2018-07-20T03:41:46.486Z,9.10
2018-07-20T03:44:13.887Z,9.90
2018-07-20T03:46:41.279Z,8.73
2018-07-20T03:49:09.639Z,9.10
2018-07-20T03:51:36.994Z,8.60
2018-07-20T03:54:04.374Z,8.87
2018-07-20T03:56:31.769Z,8.90
2018-07-20T03:58:59.076Z,10.17
2018-07-20T04:01:26.342Z,10.10
2018-07-20T04:03:53.691Z,8.63
2018-07-20T04:06:20.967Z,8.63
2018-07-20T04:08:48.259Z,8.20
2018-07-20T04:11:15.641Z,8.20
2018-07-20T04:13:42.960Z,8.90
2018-07-20T04:16:10.251Z,8.03
2018-07-20T04:18:37.506Z,8.20
2018-07-20T04:21:04.815Z,7.67
2018-07-20T04:23:32.134Z,8.20
2018-07-20T04:25:59.419Z,7.17
2018-07-20T04:28:26.784Z,7.00
2018-07-20T04:30:54.150Z,7.37
2018-07-20T04:33:21.430Z,7.40
2018-07-20T04:35:48.798Z,6.80
2018-07-20T04:38:16.156Z,6.40
2018-07-20T04:40:43.511Z,5.60
2018-07-20T04:43:10.819Z,6.10
2018-07-20T04:45:38.123Z,6.00
2018-07-20T04:48:05.415Z,6.27
2018-07-20T04:50:32.808Z,5.40
2018-07-20T04:53:00.155Z,6.70
2018-07-20T04:55:27.491Z,5.70
2018-07-20T04:57:54.987Z,5.10
2018-07-20T05:00:22.349Z,5.33
2018-07-20T05:02:49.591Z,5.70
2018-07-20T05:05:16.911Z,5.47
2018-07-20T05:07:44.223Z,6.10
2018-07-20T05:10:11.503Z,5.50
2018-07-20T05:12:38.802Z,4.73
2018-07-20T05:15:06.157Z,4.40
2018-07-20T05:17:33.434Z,4.90
2018-07-20T05:20:00.827Z,4.47
2018-07-20T05:22:28.095Z,5.10
2018-07-20T05:24:55.459Z,5.27
2018-07-20T05:27:22.778Z,5.23
2018-07-20T05:29:50.023Z,4.20
2018-07-20T05:32:17.471Z,4.13
2018-07-20T05:34:44.762Z,4.70
2018-07-20T05:37:12.077Z,4.77
2018-07-20T05:39:39.331Z,4.60
2018-07-20T05:42:08.765Z,4.03
2018-07-20T05:44:36.088Z,4.20
2018-07-20T05:47:03.407Z,3.50
2018-07-20T05:49:31.827Z,4.47
2018-07-20T05:51:59.094Z,3.30
2018-07-20T05:54:26.438Z,3.90
2018-07-20T05:56:53.751Z,3.70
2018-07-20T05:59:21.074Z,4.33
2018-07-20T06:01:48.393Z,3.53
2018-07-20T06:04:15.614Z,4.10
2018-07-20T06:06:42.893Z,3.70
2018-07-20T06:09:11.515Z,3.43
2018-07-20T06:11:38.927Z,3.87
2018-07-20T06:14:06.700Z,3.10
2018-07-20T06:16:33.947Z,3.00
2018-07-20T06:19:01.500Z,3.10
2018-07-20T06:21:28.754Z,2.97
2018-07-20T06:23:56.145Z,2.77
2018-07-20T06:26:23.515Z,2.93
2018-07-20T06:28:51.842Z,2.60
2018-07-20T06:31:19.231Z,3.73
2018-07-20T06:33:46.522Z,2.73
2018-07-20T06:36:13.864Z,2.60
2018-07-20T06:38:41.139Z,2.30
2018-07-20T06:41:08.465Z,2.60
2018-07-20T06:43:35.842Z,3.00
2018-07-20T06:46:03.100Z,2.50
2018-07-20T06:48:30.410Z,2.27
2018-07-20T06:50:57.692Z,2.50
2018-07-20T06:53:26.903Z,2.40
2018-07-20T06:55:54.144Z,2.43
2018-07-20T06:58:21.423Z,3.10
2018-07-20T07:00:48.699Z,2.73
2018-07-20T07:03:16.217Z,2.37
2018-07-20T07:05:43.539Z,2.57
2018-07-20T07:08:10.799Z,2.33
2018-07-20T07:10:38.378Z,2.60
2018-07-20T07:13:05.652Z,2.50
2018-07-20T07:15:32.950Z,2.80
2018-07-20T07:18:00.361Z,2.70
2018-07-20T07:20:27.623Z,2.50
2018-07-20T07:22:54.905Z,2.13
2018-07-20T07:25:22.270Z,2.73
2018-07-20T07:27:49.617Z,2.50
2018-07-20T07:30:16.975Z,2.33
2018-07-20T07:32:44.308Z,2.50
2018-07-20T07:35:11.554Z,2.03
2018-07-20T07:37:38.846Z,2.50
2018-07-20T07:40:06.121Z,2.73
2018-07-20T07:42:33.410Z,2.20
2018-07-20T07:45:00.672Z,2.10
2018-07-20T07:47:27.938Z,2.30
2018-07-20T07:49:55.252Z,2.47
2018-07-20T07:52:22.526Z,2.47
2018-07-20T07:54:49.844Z,2.23
2018-07-20T07:57:17.143Z,2.90
2018-07-20T07:59:44.391Z,2.70
2018-07-20T08:02:11.712Z,2.23
2018-07-20T08:04:39.014Z,2.90
2018-07-20T08:07:06.391Z,2.30
2018-07-20T08:09:33.698Z,2.50
2018-07-20T08:12:01.004Z,2.03
2018-07-20T08:14:28.306Z,2.13
2018-07-20T08:16:55.599Z,1.80
2018-07-20T08:19:22.872Z,2.50
2018-07-20T08:21:50.130Z,2.30
2018-07-20T08:24:17.443Z,2.40
2018-07-20T08:26:44.695Z,2.13
2018-07-20T08:29:11.991Z,2.33
2018-07-20T08:31:39.247Z,2.40
2018-07-20T08:34:06.548Z,2.20
2018-07-20T08:36:33.843Z,2.10
2018-07-20T08:39:01.113Z,2.33
2018-07-20T08:41:28.393Z,2.30
2018-07-20T08:43:55.646Z,2.10
2018-07-20T08:46:22.892Z,2.30
2018-07-20T08:48:50.167Z,2.07
2018-07-20T08:51:17.406Z,1.80
2018-07-20T08:53:44.650Z,2.30
2018-07-20T08:56:11.910Z,2.20
2018-07-20T08:58:39.244Z,2.30
2018-07-20T09:01:06.907Z,3.07
2018-07-20T09:03:34.178Z,2.40
2018-07-20T09:06:01.538Z,2.47
2018-07-20T09:08:28.818Z,2.20
2018-07-20T09:10:56.106Z,2.13
2018-07-20T09:13:23.542Z,2.07
2018-07-20T09:15:50.841Z,2.10
2018-07-20T09:18:18.130Z,2.20
2018-07-20T09:20:45.479Z,2.23
2018-07-20T09:23:12.666Z,2.00
2018-07-20T09:25:39.933Z,1.73
2018-07-20T09:28:07.272Z,2.37
2018-07-20T09:30:34.564Z,2.17
2018-07-20T09:33:01.980Z,2.70
2018-07-20T09:35:29.251Z,2.40
2018-07-20T09:37:56.591Z,2.30
2018-07-20T09:40:23.893Z,2.50
2018-07-20T09:42:51.158Z,3.10
2018-07-20T09:45:18.445Z,2.00
2018-07-20T09:47:45.719Z,2.27
2018-07-20T09:50:13.084Z,2.23
2018-07-20T09:52:40.336Z,2.13
2018-07-20T09:55:07.640Z,2.80
2018-07-20T09:57:34.935Z,3.20
2018-07-20T10:00:02.224Z,2.30
2018-07-20T10:02:29.639Z,2.13
2018-07-20T10:04:56.931Z,2.50
2018-07-20T10:07:24.271Z,2.87
2018-07-20T10:09:51.550Z,2.90
2018-07-20T10:12:18.810Z,2.30
2018-07-20T10:14:46.054Z,2.70
2018-07-20T10:17:13.323Z,2.70
2018-07-20T10:19:40.553Z,2.80
2018-07-20T10:22:08.922Z,2.80
2018-07-20T10:24:36.159Z,2.77
2018-07-20T10:27:03.499Z,3.00
2018-07-20T10:29:30.792Z,2.70
2018-07-20T10:31:58.107Z,3.50
2018-07-20T10:34:25.397Z,3.10
2018-07-20T10:36:52.661Z,3.00
2018-07-20T10:39:21.567Z,2.83
2018-07-20T10:41:48.991Z,2.60
2018-07-20T10:44:16.294Z,2.90
2018-07-20T10:46:43.605Z,2.70
2018-07-20T10:49:10.894Z,2.93
2018-07-20T10:51:38.190Z,3.17
2018-07-20T10:54:05.452Z,3.77
2018-07-20T10:56:32.764Z,3.30
2018-07-20T10:59:00.046Z,3.70
2018-07-20T11:01:27.478Z,2.97
2018-07-20T11:03:54.702Z,2.77
2018-07-20T11:06:21.989Z,3.63
2018-07-20T11:08:49.273Z,3.90
2018-07-20T11:11:16.531Z,3.20
2018-07-20T11:13:43.851Z,3.30
2018-07-20T11:16:11.089Z,3.20
2018-07-20T11:18:38.365Z,3.17
2018-07-20T11:21:05.661Z,3.47
2018-07-20T11:23:32.931Z,3.40
2018-07-20T11:26:00.255Z,3.00
2018-07-20T11:28:27.549Z,3.53
2018-07-20T11:30:54.827Z,3.63
2018-07-20T11:33:22.095Z,2.97
2018-07-20T11:35:49.403Z,3.00
2018-07-20T11:38:16.770Z,3.57
2018-07-20T11:40:44.066Z,3.20
2018-07-20T11:43:11.368Z,3.30
2018-07-20T11:45:38.630Z,3.40
2018-07-20T11:48:05.907Z,3.63
2018-07-20T11:50:33.186Z,3.03
2018-07-20T11:53:00.434Z,3.40
2018-07-20T11:55:27.766Z,3.20
2018-07-20T11:57:55.048Z,2.90
2018-07-20T12:00:22.312Z,3.20
2018-07-20T12:02:49.784Z,2.83
2018-07-20T12:05:17.029Z,3.43
2018-07-20T12:07:44.294Z,3.10
2018-07-20T12:10:11.559Z,3.93
2018-07-20T12:12:38.815Z,4.03
2018-07-20T13:37:03.754Z,3.73
2018-07-20T13:39:31.013Z,3.40
2018-07-20T13:41:58.266Z,4.10
2018-07-20T13:44:25.510Z,3.77
2018-07-20T13:46:52.766Z,3.57
2018-07-20T13:49:20.063Z,3.87
2018-07-20T13:51:47.319Z,4.03
2018-07-20T13:54:14.562Z,4.60
2018-07-20T13:56:41.871Z,4.07
2018-07-20T13:59:09.130Z,3.83
2018-07-20T14:01:36.421Z,3.83
2018-07-20T14:04:03.646Z,4.37
2018-07-20T14:06:30.899Z,4.60
2018-07-20T14:08:58.150Z,4.30
2018-07-20T14:11:25.481Z,4.30
2018-07-20T14:13:52.778Z,4.50
2018-07-20T14:16:20.048Z,4.90
2018-07-20T14:18:47.288Z,4.53
2018-07-20T14:21:14.930Z,4.20
2018-07-20T14:23:42.298Z,4.60
2018-07-20T14:26:09.604Z,5.03
2018-07-20T14:28:36.954Z,4.90
2018-07-20T14:31:04.260Z,5.03
2018-07-20T14:33:31.592Z,5.40
2018-07-20T14:35:59.001Z,5.50
2018-07-20T14:38:26.318Z,5.53
2018-07-20T14:40:53.635Z,5.70
2018-07-20T14:43:20.995Z,5.37
2018-07-20T14:45:48.268Z,5.53
2018-07-20T14:48:15.558Z,6.47
2018-07-20T14:50:42.912Z,6.90
2018-07-20T14:53:10.154Z,6.10
2018-07-20T14:55:37.519Z,5.80
2018-07-20T14:58:04.895Z,6.03
2018-07-20T15:00:32.180Z,5.50
2018-07-20T15:02:59.431Z,5.87
2018-07-20T15:05:26.801Z,4.83
2018-07-20T15:07:54.044Z,6.33
2018-07-20T15:10:21.482Z,5.20
2018-07-20T15:12:49.779Z,5.63
2018-07-20T15:15:17.028Z,5.60
2018-07-20T15:17:44.279Z,5.40
2018-07-20T15:20:11.541Z,5.37
2018-07-20T15:22:38.779Z,4.90
2018-07-20T15:25:06.074Z,5.47
2018-07-20T15:27:33.360Z,5.20
2018-07-20T15:30:00.627Z,4.77
2018-07-20T15:32:27.904Z,5.00
2018-07-20T15:34:55.214Z,5.80
2018-07-20T15:37:23.472Z,5.30
2018-07-20T15:39:50.781Z,4.90
2018-07-20T15:42:18.061Z,4.37
2018-07-20T15:44:45.323Z,4.57
2018-07-20T15:47:12.687Z,4.77
2018-07-20T15:49:39.926Z,5.30
2018-07-20T15:54:34.759Z,4.60
2018-07-20T15:57:01.996Z,4.97
2018-07-20T15:59:29.372Z,5.53
2018-07-20T16:01:56.697Z,5.10
2018-07-20T16:04:23.935Z,5.50
2018-07-20T16:06:51.231Z,5.60
2018-07-20T16:09:18.530Z,5.63
2018-07-20T16:11:45.783Z,6.17
2018-07-20T16:14:13.051Z,5.70
2018-07-20T16:16:40.296Z,5.30
2018-07-20T16:19:07.673Z,4.97
2018-07-20T16:21:35.023Z,5.77
2018-07-20T16:24:02.541Z,5.70
2018-07-20T16:26:29.848Z,5.20
2018-07-20T16:28:57.118Z,6.13
2018-07-20T16:31:24.369Z,6.03
2018-07-20T16:33:51.623Z,5.20
2018-07-20T16:36:19.063Z,5.47
2018-07-20T16:38:46.311Z,5.67
2018-07-20T16:41:13.622Z,5.70
2018-07-20T16:43:41.249Z,6.03
2018-07-20T16:46:08.612Z,5.30
2018-07-20T16:48:35.868Z,5.97
2018-07-20T16:51:03.195Z,5.40
2018-07-20T16:53:30.605Z,6.50
2018-07-20T16:55:57.893Z,5.30
2018-07-20T16:58:25.172Z,5.43
2018-07-20T17:00:52.718Z,5.70
2018-07-20T17:03:20.143Z,6.43
2018-07-20T17:05:47.502Z,7.20
2018-07-20T17:08:14.883Z,6.27
2018-07-20T17:10:42.254Z,6.00
2018-07-20T17:13:10.591Z,6.57
2018-07-20T17:15:37.881Z,6.30
2018-07-20T17:18:05.343Z,7.00
2018-07-20T17:20:32.635Z,7.23
2018-07-20T17:22:59.950Z,6.20
2018-07-20T17:25:27.275Z,6.47
2018-07-20T17:27:54.624Z,6.77
2018-07-20T17:30:22.052Z,6.50
2018-07-20T17:32:49.498Z,6.73
2018-07-20T17:35:16.784Z,6.30
2018-07-20T17:37:44.111Z,7.00
2018-07-20T17:40:12.872Z,6.37
2018-07-20T17:42:41.515Z,6.97
2018-07-20T17:45:09.028Z,6.43
2018-07-20T17:47:37.559Z,7.07
2018-07-20T17:50:05.517Z,8.20
2018-07-20T17:52:34.276Z,6.80
2018-07-20T17:55:01.884Z,6.97
2018-07-20T17:57:29.521Z,6.83
2018-07-20T17:59:57.015Z,6.57
2018-07-20T18:02:24.623Z,6.60
2018-07-20T18:04:52.025Z,6.63
2018-07-20T18:07:19.540Z,7.20
2018-07-20T18:09:48.114Z,7.17
2018-07-20T18:12:16.786Z,6.77
2018-07-20T18:14:45.246Z,6.70
2018-07-20T18:17:13.034Z,6.83
2018-07-20T18:19:40.705Z,7.40
2018-07-20T18:22:08.435Z,7.13
2018-07-20T18:24:35.981Z,6.50
2018-07-20T18:27:03.278Z,7.23
2018-07-20T18:29:30.819Z,7.50
2018-07-20T18:31:59.179Z,7.90
2018-07-20T18:34:26.896Z,6.90
2018-07-20T18:36:54.418Z,6.97
2018-07-20T18:39:22.843Z,5.80
2018-07-20T18:41:50.243Z,6.57
2018-07-20T18:44:17.526Z,5.80
2018-07-20T18:46:44.932Z,5.70
2018-07-20T18:49:12.247Z,5.37
2018-07-20T18:51:40.000Z,5.83
2018-07-20T18:54:08.632Z,5.50
2018-07-20T18:56:35.903Z,5.67
2018-07-20T18:59:04.031Z,5.53
2018-07-20T19:01:31.438Z,5.63
2018-07-20T19:03:59.313Z,4.43
2018-07-20T19:06:26.748Z,5.20
2018-07-20T19:08:54.079Z,5.23
2018-07-20T19:11:22.416Z,5.20
2018-07-20T19:13:49.777Z,5.00
2018-07-20T19:16:17.693Z,4.40
2018-07-20T19:18:49.726Z,4.27
2018-07-20T19:21:17.077Z,4.80
2018-07-20T19:23:44.369Z,4.40
2018-07-20T19:26:15.534Z,5.23
2018-07-20T19:28:42.820Z,4.93
2018-07-20T19:31:12.063Z,5.20
2018-07-20T19:33:40.326Z,5.00
2018-07-20T19:36:07.730Z,5.17
2018-07-20T19:38:35.058Z,5.13
2018-07-20T19:41:02.645Z,4.63
2018-07-20T19:43:29.868Z,5.33
2018-07-20T19:45:57.392Z,4.17
2018-07-20T19:48:24.824Z,4.70
2018-07-20T19:50:52.345Z,5.10
2018-07-20T19:53:19.701Z,4.80
2018-07-20T19:55:47.293Z,5.93
2018-07-20T19:58:14.634Z,4.60
2018-07-20T20:00:42.428Z,4.67
2018-07-20T20:03:09.848Z,4.63
2018-07-20T20:05:37.182Z,4.23
2018-07-20T20:08:04.457Z,4.40
2018-07-20T20:10:31.827Z,4.70
2018-07-20T20:12:59.081Z,3.97
2018-07-20T20:15:26.371Z,4.50
2018-07-20T20:17:53.666Z,3.90
2018-07-20T20:20:20.939Z,3.90
2018-07-20T20:22:48.342Z,4.37
2018-07-20T20:25:15.613Z,3.70
2018-07-20T20:27:42.897Z,3.60
2018-07-20T20:30:10.276Z,3.80
2018-07-20T20:32:37.717Z,4.17
2018-07-20T20:35:05.006Z,3.67
2018-07-20T20:37:32.333Z,3.53
2018-07-20T20:39:59.589Z,4.10
2018-07-20T20:42:27.892Z,3.80
2018-07-20T20:44:55.169Z,3.60
2018-07-20T20:47:22.822Z,3.30
2018-07-20T20:49:50.177Z,3.40
2018-07-20T20:52:17.980Z,3.50
2018-07-20T20:54:45.302Z,2.90
2018-07-20T20:57:12.626Z,3.50
2018-07-20T20:59:40.036Z,3.27
2018-07-20T21:02:07.366Z,3.47
2018-07-20T21:04:34.771Z,2.90
2018-07-20T21:07:02.912Z,3.23
2018-07-20T21:09:30.329Z,3.47
2018-07-20T21:11:57.675Z,3.43
2018-07-20T21:14:24.981Z,3.30
2018-07-20T21:16:52.505Z,3.13
2018-07-20T21:19:19.853Z,3.37
2018-07-20T21:21:47.189Z,3.00
2018-07-20T21:24:14.539Z,2.83
2018-07-20T21:26:42.301Z,3.30
2018-07-20T21:29:09.623Z,2.90
2018-07-20T21:31:36.916Z,3.00
2018-07-20T21:34:04.261Z,3.80
2018-07-20T21:36:31.497Z,3.20
2018-07-20T21:38:58.806Z,3.00
2018-07-20T21:41:26.352Z,2.77
2018-07-20T21:43:53.822Z,3.40
2018-07-20T21:46:21.954Z,2.70
2018-07-20T21:48:49.395Z,2.77
2018-07-20T21:51:16.725Z,2.87
2018-07-20T21:53:44.074Z,2.70
2018-07-20T21:56:12.343Z,3.17
2018-07-20T21:58:40.360Z,2.50
2018-07-20T22:01:07.834Z,2.40
2018-07-20T22:03:35.092Z,2.30
2018-07-20T22:06:02.418Z,2.90
2018-07-20T22:08:29.698Z,3.00
2018-07-20T22:10:57.470Z,2.90
2018-07-20T22:13:25.011Z,2.67
2018-07-20T22:15:52.341Z,2.60
2018-07-20T22:18:19.769Z,2.90
2018-07-20T22:20:47.081Z,2.37
2018-07-20T22:23:15.064Z,2.97
2018-07-20T22:25:42.602Z,2.33
2018-07-20T22:28:09.977Z,2.53
2018-07-20T22:30:38.489Z,2.97
2018-07-20T22:33:05.890Z,3.03
2018-07-20T22:35:33.274Z,2.63
2018-07-20T22:38:00.608Z,2.80
2018-07-20T22:40:28.060Z,2.60
2018-07-20T22:42:55.357Z,2.60
2018-07-20T22:45:22.750Z,2.70
2018-07-20T22:47:50.102Z,2.70
2018-07-20T22:50:17.579Z,2.80
2018-07-20T22:52:44.897Z,2.53
2018-07-20T22:55:12.266Z,3.17
2018-07-20T22:57:39.717Z,2.87
2018-07-20T23:00:07.035Z,3.10
2018-07-20T23:02:34.727Z,3.03
2018-07-20T23:05:02.453Z,2.90
2018-07-20T23:07:29.778Z,2.80
2018-07-20T23:09:57.119Z,3.10
2018-07-20T23:12:25.080Z,3.17
2018-07-20T23:14:53.057Z,3.47
2018-07-20T23:17:21.743Z,3.33
2018-07-20T23:19:49.366Z,3.40
2018-07-20T23:22:16.941Z,3.00
2018-07-20T23:24:45.175Z,3.30
2018-07-20T23:27:12.733Z,3.40
2018-07-20T23:29:41.910Z,3.23
2018-07-20T23:32:10.362Z,3.33
2018-07-20T23:34:37.945Z,3.30
2018-07-20T23:37:05.536Z,3.43
2018-07-20T23:39:33.912Z,3.27
2018-07-20T23:42:05.026Z,3.83
2018-07-20T23:44:32.449Z,3.77
2018-07-20T23:46:59.848Z,3.30
2018-07-20T23:49:27.159Z,4.10
2018-07-20T23:51:54.580Z,4.23
2018-07-20T23:54:21.942Z,3.70
2018-07-20T23:56:49.290Z,3.80
2018-07-20T23:59:16.595Z,3.83
